createdAt,value
2023-03-18T00:02:14.769Z,26.87
2023-03-18T00:04:44.445Z,26.74
2023-03-18T00:07:14.029Z,26.62
2023-03-18T00:09:44.022Z,27.01
2023-03-18T00:12:13.778Z,26.74
2023-03-18T00:14:43.531Z,26.75
2023-03-18T00:17:13.254Z,26.89
2023-03-18T00:19:42.951Z,26.58
2023-03-18T00:22:12.667Z,26.57
2023-03-18T00:24:42.504Z,27.10
2023-03-18T00:27:12.152Z,27.06
2023-03-18T00:29:42.167Z,27.33
2023-03-18T00:32:11.769Z,27.15
2023-03-18T00:34:42.181Z,27.06
2023-03-18T00:37:12.015Z,27.14
2023-03-18T00:39:45.830Z,26.90
2023-03-18T00:42:16.338Z,26.91
2023-03-18T00:44:46.717Z,26.95
2023-03-18T00:47:16.435Z,27.05
2023-03-18T00:49:46.036Z,27.30
2023-03-18T00:52:16.021Z,27.31
2023-03-18T00:54:45.551Z,27.02
2023-03-18T00:57:15.222Z,26.77
2023-03-18T00:59:45.056Z,26.62
2023-03-18T01:02:14.901Z,27.06
2023-03-18T01:04:44.519Z,26.85
2023-03-18T01:07:14.924Z,27.38
2023-03-18T01:09:45.228Z,26.70
2023-03-18T01:12:15.407Z,26.91
2023-03-18T01:14:45.725Z,26.44
2023-03-18T01:17:15.571Z,27.15
2023-03-18T01:19:46.140Z,26.77
2023-03-18T01:22:16.107Z,26.85
2023-03-18T01:24:46.592Z,26.86
2023-03-18T01:27:16.511Z,27.25
2023-03-18T01:29:47.989Z,27.34
2023-03-18T01:32:17.962Z,27.02
2023-03-18T01:34:47.711Z,27.10
2023-03-18T01:37:17.351Z,27.41
2023-03-18T01:39:47.388Z,26.68
2023-03-18T01:42:19.805Z,26.72
2023-03-18T01:44:49.780Z,26.89
2023-03-18T01:47:19.383Z,26.74
2023-03-18T01:49:51.739Z,27.04
2023-03-18T01:52:25.170Z,27.06
2023-03-18T01:55:00.554Z,27.09
2023-03-18T01:57:32.730Z,26.80
2023-03-18T02:00:04.554Z,26.87
2023-03-18T02:02:35.590Z,26.62
2023-03-18T02:05:09.552Z,26.83
2023-03-18T02:07:40.576Z,26.60
2023-03-18T02:10:15.263Z,26.63
2023-03-18T02:12:48.622Z,26.77
2023-03-18T02:15:22.908Z,26.46
2023-03-18T02:18:07.489Z,26.53
2023-03-18T02:20:49.734Z,26.46
2023-03-18T02:24:11.031Z,26.31
2023-03-18T02:27:16.340Z,26.32
2023-03-18T02:29:47.629Z,26.28
2023-03-18T02:32:18.628Z,26.45
2023-03-18T02:34:48.557Z,26.47
2023-03-18T02:37:18.290Z,25.89
2023-03-18T02:39:48.097Z,26.35
2023-03-18T02:42:18.440Z,26.56
2023-03-18T02:44:49.752Z,26.27
2023-03-18T02:47:23.922Z,26.30
2023-03-18T02:49:54.271Z,26.40
2023-03-18T02:52:23.952Z,26.12
2023-03-18T02:54:53.612Z,26.16
2023-03-18T02:57:23.155Z,26.42
2023-03-18T02:59:52.726Z,25.89
2023-03-18T03:02:22.646Z,25.83
2023-03-18T03:04:53.343Z,26.42
2023-03-18T03:07:22.993Z,26.24
2023-03-18T03:09:52.582Z,26.36
2023-03-18T03:12:22.283Z,26.09
2023-03-18T03:14:51.847Z,26.63
2023-03-18T03:17:21.429Z,26.29
2023-03-18T03:19:50.962Z,25.91
2023-03-18T03:22:21.337Z,26.38
2023-03-18T03:24:50.890Z,26.53
2023-03-18T03:27:20.438Z,26.24
2023-03-18T03:29:50.186Z,26.32
2023-03-18T03:32:19.854Z,26.81
2023-03-18T03:34:49.463Z,26.31
2023-03-18T03:37:19.617Z,26.54
2023-03-18T03:39:50.604Z,26.29
2023-03-18T03:42:20.288Z,26.31
2023-03-18T03:44:49.912Z,25.92
2023-03-18T03:47:19.605Z,25.75
2023-03-18T03:49:49.280Z,25.87
2023-03-18T03:52:21.389Z,25.95
2023-03-18T03:54:51.882Z,25.85
2023-03-18T03:57:21.656Z,25.99
2023-03-18T03:59:51.344Z,25.36
2023-03-18T04:02:21.830Z,25.76
2023-03-18T04:04:51.895Z,25.98
2023-03-18T04:07:21.604Z,25.65
2023-03-18T04:09:51.726Z,25.87
2023-03-18T04:12:21.365Z,25.54
2023-03-18T04:14:51.871Z,25.76
2023-03-18T04:17:21.512Z,26.06
2023-03-18T04:19:51.641Z,25.90
2023-03-18T04:22:21.477Z,25.91
2023-03-18T04:24:51.122Z,25.57
2023-03-18T04:27:21.522Z,25.72
2023-03-18T04:29:51.379Z,25.52
2023-03-18T04:32:21.016Z,25.76
2023-03-18T04:34:50.554Z,25.54
2023-03-18T04:37:22.234Z,25.95
2023-03-18T04:39:52.195Z,25.74
2023-03-18T04:42:21.757Z,25.18
2023-03-18T04:44:51.344Z,25.27
2023-03-18T04:47:21.027Z,25.24
2023-03-18T04:49:51.010Z,25.42
2023-03-18T04:52:21.743Z,25.50
2023-03-18T04:54:51.723Z,25.49
2023-03-18T04:57:21.325Z,25.46
2023-03-18T04:59:50.966Z,25.23
2023-03-18T05:02:21.400Z,24.87
2023-03-18T05:04:51.171Z,25.49
2023-03-18T05:07:20.917Z,25.02
2023-03-18T05:09:50.835Z,25.62
2023-03-18T05:12:20.588Z,25.50
2023-03-18T05:14:50.177Z,25.09
2023-03-18T05:17:19.869Z,25.05
2023-03-18T05:19:50.870Z,24.90
2023-03-18T05:22:23.535Z,25.79
2023-03-18T05:24:53.288Z,24.80
2023-03-18T05:27:22.993Z,25.34
2023-03-18T05:29:52.582Z,24.83
2023-03-18T05:32:22.561Z,24.94
2023-03-18T05:34:52.259Z,25.09
2023-03-18T05:37:21.939Z,24.89
2023-03-18T05:39:51.746Z,25.42
2023-03-18T05:42:21.492Z,25.01
2023-03-18T05:44:51.322Z,25.07
2023-03-18T05:47:21.050Z,25.19
2023-03-18T05:49:50.819Z,25.04
2023-03-18T05:52:20.309Z,24.87
2023-03-18T05:54:49.959Z,25.36
2023-03-18T05:57:19.966Z,25.39
2023-03-18T05:59:49.622Z,24.89
2023-03-18T06:02:19.242Z,24.88
2023-03-18T06:04:49.733Z,25.20
2023-03-18T06:07:19.280Z,25.28
2023-03-18T06:09:48.895Z,25.08
2023-03-18T06:12:19.139Z,24.78
2023-03-18T06:14:48.774Z,25.16
2023-03-18T06:17:18.371Z,25.11
2023-03-18T06:19:48.025Z,24.49
2023-03-18T06:22:20.831Z,24.83
2023-03-18T06:24:50.526Z,24.79
2023-03-18T06:27:20.353Z,24.44
2023-03-18T06:29:50.454Z,24.63
2023-03-18T06:32:20.079Z,24.46
2023-03-18T06:34:49.860Z,24.59
2023-03-18T06:37:19.507Z,25.11
2023-03-18T06:39:49.117Z,24.38
2023-03-18T06:42:18.688Z,24.63
2023-03-18T06:44:52.186Z,25.08
2023-03-18T06:47:26.530Z,24.79
2023-03-18T06:49:56.972Z,24.96
2023-03-18T06:52:26.932Z,25.10
2023-03-18T06:54:56.488Z,24.58
2023-03-18T06:57:26.206Z,25.17
2023-03-18T06:59:55.743Z,24.85
2023-03-18T07:02:25.313Z,24.91
2023-03-18T07:04:54.891Z,24.87
2023-03-18T07:07:24.721Z,24.93
2023-03-18T07:09:54.320Z,24.91
2023-03-18T07:12:24.146Z,25.49
2023-03-18T07:14:55.041Z,24.81
2023-03-18T07:17:24.799Z,24.51
2023-03-18T07:19:56.727Z,25.25
2023-03-18T07:22:26.290Z,25.07
2023-03-18T07:24:56.373Z,25.18
2023-03-18T07:27:25.956Z,24.74
2023-03-18T07:29:55.502Z,25.15
2023-03-18T07:32:25.842Z,24.93
2023-03-18T07:34:55.501Z,25.38
2023-03-18T07:37:25.650Z,25.11
2023-03-18T07:39:55.201Z,25.39
2023-03-18T07:42:25.289Z,25.83
2023-03-18T07:44:55.075Z,25.73
2023-03-18T07:47:26.525Z,25.83
2023-03-18T07:49:56.115Z,26.16
2023-03-18T07:52:26.120Z,25.65
2023-03-18T07:54:55.643Z,25.92
2023-03-18T07:57:25.466Z,25.77
2023-03-18T07:59:55.333Z,25.89
2023-03-18T08:02:25.226Z,25.62
2023-03-18T08:04:54.960Z,25.98
2023-03-18T08:07:25.957Z,25.47
2023-03-18T08:09:55.708Z,25.56
2023-03-18T08:12:25.390Z,25.77
2023-03-18T08:14:55.119Z,25.92
2023-03-18T08:17:24.800Z,25.68
2023-03-18T08:19:54.489Z,25.54
2023-03-18T08:22:25.620Z,26.06
2023-03-18T08:24:55.305Z,25.70
2023-03-18T08:27:24.906Z,26.04
2023-03-18T08:29:54.435Z,25.95
2023-03-18T08:32:24.168Z,26.14
2023-03-18T08:34:53.952Z,26.04
2023-03-18T08:37:23.608Z,25.79
2023-03-18T08:39:53.403Z,26.46
2023-03-18T08:42:23.604Z,25.94
2023-03-18T08:44:53.219Z,26.47
2023-03-18T08:47:23.170Z,26.27
2023-03-18T08:49:53.267Z,26.74
2023-03-18T08:52:24.034Z,26.73
2023-03-18T08:54:53.623Z,26.37
2023-03-18T08:57:23.593Z,26.60
2023-03-18T08:59:53.559Z,27.08
2023-03-18T09:02:23.153Z,27.15
2023-03-18T09:04:53.218Z,27.10
2023-03-18T09:07:22.952Z,26.60
2023-03-18T09:09:52.567Z,27.30
2023-03-18T09:12:22.178Z,27.28
2023-03-18T09:14:51.683Z,27.29
2023-03-18T09:17:22.341Z,26.98
2023-03-18T09:19:54.726Z,26.82
2023-03-18T09:22:24.396Z,26.91
2023-03-18T09:24:54.068Z,26.86
2023-03-18T09:27:23.766Z,26.79
2023-03-18T09:29:53.683Z,27.24
2023-03-18T09:32:23.636Z,27.05
2023-03-18T09:34:53.345Z,27.20
2023-03-18T09:37:23.542Z,27.02
2023-03-18T09:39:53.310Z,26.91
2023-03-18T09:42:31.237Z,27.09
2023-03-18T09:45:11.364Z,27.40
2023-03-18T09:47:58.407Z,27.26
2023-03-18T09:50:43.515Z,27.33
2023-03-18T09:54:09.300Z,27.48
2023-03-18T09:56:40.992Z,27.18
2023-03-18T09:59:23.157Z,27.39
2023-03-18T10:01:58.660Z,27.50
2023-03-18T10:04:46.528Z,27.26
2023-03-18T10:07:22.074Z,27.04
2023-03-18T10:10:03.027Z,27.67
2023-03-18T10:12:39.738Z,27.52
2023-03-18T10:15:17.987Z,27.57
2023-03-18T10:18:07.498Z,27.68
2023-03-18T10:20:40.017Z,27.67
2023-03-18T10:23:59.867Z,27.56
2023-03-18T10:26:33.771Z,27.94
2023-03-18T10:29:06.050Z,27.85
2023-03-18T10:31:49.737Z,27.73
2023-03-18T10:34:24.961Z,27.84
2023-03-18T10:37:34.784Z,27.75
2023-03-18T10:40:12.594Z,27.67
2023-03-18T10:42:43.417Z,28.02
2023-03-18T10:45:22.034Z,28.19
2023-03-18T10:48:27.441Z,28.20
2023-03-18T10:51:20.009Z,28.08
2023-03-18T10:54:22.475Z,28.25
2023-03-18T10:56:54.197Z,28.30
2023-03-18T10:59:27.273Z,28.18
2023-03-18T11:02:12.025Z,28.49
2023-03-18T11:04:55.976Z,28.32
2023-03-18T11:07:28.407Z,28.32
2023-03-18T11:10:19.491Z,28.53
2023-03-18T11:12:49.004Z,28.32
2023-03-18T11:15:22.697Z,28.26
2023-03-18T11:17:53.480Z,28.58
2023-03-18T11:20:35.290Z,28.44
2023-03-18T11:23:15.081Z,28.62
2023-03-18T11:25:48.917Z,28.60
2023-03-18T11:28:24.656Z,28.31
2023-03-18T11:30:58.955Z,28.48
2023-03-18T11:33:38.816Z,28.63
2023-03-18T11:36:11.265Z,28.61
2023-03-18T11:38:41.297Z,28.73
2023-03-18T11:41:18.468Z,28.73
2023-03-18T11:44:19.196Z,29.17
2023-03-18T11:47:07.295Z,28.89
2023-03-18T11:49:37.150Z,28.81
2023-03-18T11:52:30.345Z,28.78
2023-03-18T11:55:09.702Z,29.12
2023-03-18T11:58:10.504Z,29.32
2023-03-18T12:00:43.803Z,29.06
2023-03-18T12:03:19.327Z,28.70
2023-03-18T12:05:55.059Z,28.83
2023-03-18T12:08:28.204Z,28.67
2023-03-18T12:11:17.765Z,29.25
2023-03-18T12:14:14.731Z,28.80
2023-03-18T12:16:50.342Z,29.31
2023-03-18T12:19:50.461Z,29.14
2023-03-18T12:22:30.920Z,29.22
2023-03-18T12:25:31.910Z,29.41
2023-03-18T12:28:36.026Z,29.35
2023-03-18T12:31:30.700Z,29.36
2023-03-18T12:34:04.365Z,29.01
2023-03-18T12:36:37.551Z,29.58
2023-03-18T12:39:33.144Z,29.42
2023-03-18T12:42:16.771Z,29.73
2023-03-18T12:44:59.370Z,29.45
2023-03-18T12:47:36.968Z,29.30
2023-03-18T12:50:26.895Z,29.52
2023-03-18T12:53:07.050Z,29.51
2023-03-18T12:55:44.206Z,29.67
2023-03-18T12:58:30.617Z,29.69
2023-03-18T13:01:50.858Z,29.77
2023-03-18T13:04:29.950Z,29.78
2023-03-18T13:07:09.667Z,29.61
2023-03-18T13:10:04.887Z,29.85
2023-03-18T13:12:45.784Z,29.88
2023-03-18T13:15:34.288Z,29.94
2023-03-18T13:18:26.738Z,29.68
2023-03-18T13:21:00.161Z,29.89
2023-03-18T13:23:49.950Z,29.50
2023-03-18T13:26:30.746Z,30.23
2023-03-18T13:29:07.232Z,29.98
2023-03-18T13:31:48.060Z,30.17
2023-03-18T13:34:48.010Z,30.22
2023-03-18T13:37:54.372Z,30.13
2023-03-18T13:40:56.280Z,30.38
2023-03-18T13:43:27.454Z,30.25
2023-03-18T13:45:59.966Z,30.17
2023-03-18T13:48:35.655Z,30.55
2023-03-18T13:51:29.052Z,30.63
2023-03-18T13:54:10.305Z,30.44
2023-03-18T13:56:44.034Z,30.18
2023-03-18T13:59:50.077Z,30.49
2023-03-18T14:02:57.408Z,30.69
2023-03-18T14:05:41.923Z,30.62
2023-03-18T14:08:44.315Z,30.82
2023-03-18T14:11:21.612Z,31.15
2023-03-18T14:14:02.054Z,30.87
2023-03-18T14:16:53.045Z,30.63
2023-03-18T14:19:34.020Z,30.83
2023-03-18T14:22:16.913Z,30.88
2023-03-18T14:24:48.379Z,31.13
2023-03-18T14:27:23.142Z,30.92
2023-03-18T14:29:53.540Z,31.30
2023-03-18T14:32:35.042Z,30.79
2023-03-18T14:35:19.859Z,30.80
2023-03-18T14:38:16.867Z,30.98
2023-03-18T14:40:53.090Z,30.75
2023-03-18T14:43:30.796Z,31.43
2023-03-18T14:46:07.428Z,31.47
2023-03-18T14:48:37.873Z,30.96
2023-03-18T14:51:14.155Z,31.36
2023-03-18T14:54:05.737Z,31.28
2023-03-18T14:56:44.455Z,31.61
2023-03-18T14:59:19.030Z,31.58
2023-03-18T15:01:55.282Z,31.39
2023-03-18T15:04:27.533Z,31.72
2023-03-18T15:07:02.654Z,31.25
2023-03-18T15:09:36.974Z,31.65
2023-03-18T15:12:20.971Z,31.97
2023-03-18T15:14:51.888Z,32.02
2023-03-18T15:17:21.666Z,31.38
2023-03-18T15:19:51.249Z,31.20
2023-03-18T15:22:30.041Z,31.80
2023-03-18T15:25:09.975Z,31.56
2023-03-18T15:27:39.944Z,31.54
2023-03-18T15:30:25.949Z,31.55
2023-03-18T15:33:07.324Z,31.76
2023-03-18T15:35:37.864Z,31.49
2023-03-18T15:38:23.412Z,31.37
2023-03-18T15:41:05.988Z,31.77
2023-03-18T15:43:46.578Z,31.96
2023-03-18T15:46:33.832Z,32.17
2023-03-18T15:49:06.015Z,31.96
2023-03-18T15:51:41.785Z,31.86
2023-03-18T15:54:32.381Z,31.43
2023-03-18T15:57:12.483Z,31.49
2023-03-18T15:59:42.272Z,31.96
2023-03-18T16:02:19.969Z,31.63
2023-03-18T16:04:50.206Z,31.59
2023-03-18T16:07:29.688Z,31.53
2023-03-18T16:09:59.239Z,31.70
2023-03-18T16:12:32.501Z,31.53
2023-03-18T16:15:05.600Z,31.85
2023-03-18T16:17:35.621Z,31.52
2023-03-18T16:20:13.303Z,31.85
2023-03-18T16:22:43.129Z,31.92
2023-03-18T16:25:15.273Z,32.04
2023-03-18T16:27:47.494Z,31.96
2023-03-18T16:30:26.200Z,32.27
2023-03-18T16:32:56.997Z,32.13
2023-03-18T16:35:29.407Z,32.08
2023-03-18T16:37:59.314Z,32.38
2023-03-18T16:40:31.491Z,32.06
2023-03-18T16:43:01.144Z,32.27
2023-03-18T16:45:35.884Z,32.35
2023-03-18T16:48:08.725Z,32.39
2023-03-18T16:50:44.220Z,32.29
2023-03-18T16:53:19.665Z,32.49
2023-03-18T16:55:52.210Z,32.16
2023-03-18T16:58:30.384Z,32.55
2023-03-18T17:01:01.397Z,32.13
2023-03-18T17:03:33.097Z,32.62
2023-03-18T17:06:02.642Z,32.32
2023-03-18T17:08:32.209Z,32.12
2023-03-18T17:11:05.981Z,32.56
2023-03-18T17:13:39.419Z,32.52
2023-03-18T17:16:20.846Z,32.36
2023-03-18T17:18:51.222Z,32.97
2023-03-18T17:21:20.926Z,32.34
2023-03-18T17:23:50.481Z,33.05
2023-03-18T17:26:20.446Z,32.40
2023-03-18T17:28:52.058Z,32.45
2023-03-18T17:31:22.493Z,32.91
2023-03-18T17:33:52.213Z,32.94
2023-03-18T17:36:22.090Z,33.02
2023-03-18T17:38:55.041Z,32.81
2023-03-18T17:41:24.800Z,32.74
2023-03-18T17:43:54.433Z,32.93
2023-03-18T17:46:24.149Z,32.90
2023-03-18T17:48:53.733Z,32.52
2023-03-18T17:51:28.966Z,32.94
2023-03-18T17:54:01.846Z,33.04
2023-03-18T17:56:31.996Z,32.91
2023-03-18T17:59:01.657Z,32.51
2023-03-18T18:01:31.636Z,33.33
2023-03-18T18:04:03.284Z,33.45
2023-03-18T18:06:35.203Z,32.92
2023-03-18T18:09:06.006Z,32.76
2023-03-18T18:11:39.411Z,33.42
2023-03-18T18:14:22.521Z,33.01
2023-03-18T18:16:52.882Z,32.92
2023-03-18T18:19:24.433Z,33.34
2023-03-18T18:21:54.982Z,33.04
2023-03-18T18:24:30.982Z,32.67
2023-03-18T18:27:01.150Z,33.19
2023-03-18T18:29:32.223Z,32.92
2023-03-18T18:32:03.870Z,33.03
2023-03-18T18:34:33.547Z,33.56
2023-03-18T18:37:03.591Z,33.28
2023-03-18T18:39:33.279Z,33.02
2023-03-18T18:42:03.018Z,33.28
2023-03-18T18:44:33.250Z,32.95
2023-03-18T18:47:02.981Z,33.46
2023-03-18T18:49:32.622Z,33.56
2023-03-18T18:52:03.767Z,33.11
2023-03-18T18:54:33.762Z,33.47
2023-03-18T18:57:03.514Z,33.64
2023-03-18T18:59:36.383Z,33.30
2023-03-18T19:02:18.881Z,33.26
2023-03-18T19:04:48.445Z,33.65
2023-03-18T19:07:18.146Z,32.90
2023-03-18T19:09:48.992Z,33.51
2023-03-18T19:12:22.025Z,33.83
2023-03-18T19:14:51.788Z,33.79
2023-03-18T19:17:23.774Z,33.91
2023-03-18T19:19:54.872Z,33.23
2023-03-18T19:22:24.528Z,33.52
2023-03-18T19:24:54.696Z,33.45
2023-03-18T19:27:32.984Z,33.51
2023-03-18T19:30:07.164Z,33.54
2023-03-18T19:32:36.748Z,33.55
2023-03-18T19:35:07.118Z,33.18
2023-03-18T19:37:37.855Z,33.51
2023-03-18T19:40:25.330Z,34.03
2023-03-18T19:42:54.887Z,33.17
2023-03-18T19:45:24.658Z,33.44
2023-03-18T19:47:55.125Z,33.96
2023-03-18T19:50:24.839Z,33.31
2023-03-18T19:52:55.684Z,33.72
2023-03-18T19:55:25.839Z,33.61
2023-03-18T19:57:56.582Z,33.70
2023-03-18T20:00:27.639Z,33.36
2023-03-18T20:02:57.276Z,33.36
2023-03-18T20:05:27.539Z,33.86
2023-03-18T20:07:57.232Z,33.99
2023-03-18T20:10:26.915Z,33.94
2023-03-18T20:12:56.535Z,33.23
2023-03-18T20:15:31.106Z,33.76
2023-03-18T20:18:02.358Z,33.39
2023-03-18T20:20:34.789Z,33.56
2023-03-18T20:23:08.674Z,33.23
2023-03-18T20:25:42.714Z,33.74
2023-03-18T20:28:27.221Z,33.85
2023-03-18T20:30:58.386Z,33.67
2023-03-18T20:33:28.464Z,33.52
2023-03-18T20:35:58.643Z,33.62
2023-03-18T20:38:42.294Z,34.04
2023-03-18T20:41:20.815Z,33.70
2023-03-18T20:43:53.386Z,33.65
2023-03-18T20:46:25.527Z,33.46
2023-03-18T20:48:55.315Z,34.12
2023-03-18T20:51:29.359Z,33.73
2023-03-18T20:54:02.226Z,33.37
2023-03-18T20:56:34.374Z,33.50
2023-03-18T20:59:05.795Z,34.10
2023-03-18T21:01:35.461Z,33.03
2023-03-18T21:04:05.890Z,33.71
2023-03-18T21:06:35.507Z,34.08
2023-03-18T21:09:06.102Z,33.79
2023-03-18T21:11:35.696Z,33.46
2023-03-18T21:14:06.055Z,33.58
2023-03-18T21:16:37.767Z,34.04
2023-03-18T21:19:07.606Z,34.35
2023-03-18T21:21:39.966Z,34.43
2023-03-18T21:24:27.519Z,33.68
2023-03-18T21:27:05.625Z,34.16
2023-03-18T21:29:35.791Z,34.42
2023-03-18T21:32:05.442Z,34.37
2023-03-18T21:34:35.039Z,33.64
2023-03-18T21:37:04.622Z,33.83
2023-03-18T21:39:34.715Z,33.94
2023-03-18T21:42:04.281Z,33.88
2023-03-18T21:44:33.801Z,33.71
2023-03-18T21:47:03.418Z,33.40
2023-03-18T21:49:33.015Z,33.99
2023-03-18T21:52:02.927Z,33.70
2023-03-18T21:54:33.326Z,34.44
2023-03-18T21:57:02.830Z,33.78
2023-03-18T21:59:32.599Z,34.39
2023-03-18T22:02:02.353Z,34.41
2023-03-18T22:04:32.094Z,34.59
2023-03-18T22:07:01.694Z,34.32
2023-03-18T22:09:31.275Z,34.51
2023-03-18T22:12:00.928Z,34.67
2023-03-18T22:14:30.544Z,34.32
2023-03-18T22:17:00.134Z,33.89
2023-03-18T22:19:29.851Z,34.31
2023-03-18T22:21:59.497Z,34.24
2023-03-18T22:24:29.056Z,34.32
2023-03-18T22:26:58.652Z,34.51
2023-03-18T22:29:28.231Z,34.48
2023-03-18T22:31:57.757Z,34.05
2023-03-18T22:34:33.886Z,33.80
2023-03-18T22:37:03.509Z,34.39
2023-03-18T22:39:33.103Z,33.99
2023-03-18T22:42:02.705Z,33.33
2023-03-18T22:44:32.477Z,33.92
2023-03-18T22:47:04.008Z,34.12
2023-03-18T22:49:33.605Z,33.65
2023-03-18T22:52:03.745Z,34.36
2023-03-18T22:54:33.332Z,33.39
2023-03-18T22:57:02.893Z,34.00
2023-03-18T22:59:32.511Z,33.67
2023-03-18T23:02:02.090Z,33.87
2023-03-18T23:04:32.038Z,33.60
2023-03-18T23:07:01.676Z,34.26
2023-03-18T23:09:31.360Z,33.52
2023-03-18T23:12:01.252Z,33.71
2023-03-18T23:14:30.782Z,33.68
2023-03-18T23:17:00.321Z,34.24
2023-03-18T23:19:29.868Z,34.06
2023-03-18T23:21:59.470Z,33.55
2023-03-18T23:24:29.008Z,33.56
2023-03-18T23:26:59.199Z,33.51
2023-03-18T23:29:28.908Z,33.67
2023-03-18T23:31:58.576Z,33.81
2023-03-18T23:34:28.135Z,33.24
2023-03-18T23:36:57.991Z,33.68
2023-03-18T23:39:27.808Z,33.74
2023-03-18T23:41:57.529Z,33.25
2023-03-18T23:44:27.412Z,33.32
2023-03-18T23:46:57.138Z,33.41
2023-03-18T23:49:29.808Z,33.52
2023-03-18T23:51:59.446Z,34.02
2023-03-18T23:54:29.418Z,33.42
2023-03-18T23:56:59.213Z,33.39
2023-03-18T23:59:28.898Z,33.75
